Time;durP1;ratioP1;P1;durP2;ratioP2;P2;SDS_P1;SDS_P2;PMS_P1;PMS_P2;Temp;Humidity;BMP_temperature;BMP_pressure;BME280_temperature;BME280_humidity;BME280_pressure;Samples;Min_cycle;Max_cycle;Signal;HPM_P1;HPM_P2
2022/07/08 00:01:09;;;;;;;9.32;2.88;;;;;;;30.31;46.68;101381.19;4215001;28;20357;-58
2022/07/08 00:03:10;;;;;;;9.73;2.78;;;;;;;30.20;46.67;101374.25;4214104;28;20032;-59
2022/07/08 00:05:12;;;;;;;10.10;2.88;;;;;;;30.29;46.55;101378.72;4209245;28;20036;-59
2022/07/08 00:07:13;;;;;;;6.68;2.50;;;;;;;30.30;46.88;101396.47;4197809;28;20045;-59
2022/07/08 00:09:17;;;;;;;12.45;3.03;;;;;;;30.29;46.29;101383.53;4197206;28;20052;-58
2022/07/08 00:11:21;;;;;;;15.60;3.28;;;;;;;30.24;47.11;101376.06;4197470;28;20101;-58
2022/07/08 00:13:23;;;;;;;15.52;2.97;;;;;;;30.28;46.95;101393.97;4197018;28;20040;-59
2022/07/08 00:15:24;;;;;;;7.93;2.45;;;;;;;30.27;47.03;101381.03;4197826;28;20037;-59
2022/07/08 00:17:27;;;;;;;8.02;2.53;;;;;;;30.28;47.06;101393.97;4197857;28;20483;-59
2022/07/08 00:19:28;;;;;;;10.85;2.45;;;;;;;30.28;47.04;101398.78;4199808;28;20056;-58
2022/07/08 00:21:30;;;;;;;4.80;2.20;;;;;;;30.28;46.55;101396.78;4214354;28;20093;-59
2022/07/08 00:23:31;;;;;;;5.18;2.20;;;;;;;30.27;46.41;101392.31;4214322;28;20113;-59
2022/07/08 00:25:35;;;;;;;11.75;2.80;;;;;;;30.26;46.70;101401.97;4214603;28;20138;-59
2022/07/08 00:27:37;;;;;;;8.70;2.42;;;;;;;30.25;46.88;101389.00;4213805;28;20036;-59
2022/07/08 00:29:38;;;;;;;9.23;2.80;;;;;;;30.25;46.78;101383.38;4214245;28;20047;-58
2022/07/08 00:31:40;;;;;;;13.20;2.72;;;;;;;30.25;46.90;101377.72;4214096;28;20101;-58
2022/07/08 00:33:41;;;;;;;39.70;4.30;;;;;;;30.24;48.01;101378.91;4214302;28;20036;-59
2022/07/08 00:35:42;;;;;;;43.78;5.00;;;;;;;30.26;47.25;101398.31;4214256;28;20485;-59
2022/07/08 00:37:44;;;;;;;33.38;5.00;;;;;;;30.25;47.51;101399.47;4214046;28;20471;-59
2022/07/08 00:39:45;;;;;;;605.60;76.68;;;;;;;30.19;47.65;101393.16;4213918;28;20078;-60
2022/07/08 00:41:46;;;;;;;397.10;45.03;;;;;;;30.24;47.24;101398.66;4214415;28;20048;-60
2022/07/08 00:43:51;;;;;;;270.25;29.95;;;;;;;30.23;47.22;101380.03;4213811;28;20390;-59
2022/07/08 00:45:55;;;;;;;313.23;35.35;;;;;;;30.23;47.35;101388.50;4214356;28;20097;-59
2022/07/08 00:48:02;;;;;;;420.98;45.10;;;;;;;30.22;47.44;101398.13;4214002;28;20036;-59
2022/07/08 00:50:04;;;;;;;338.70;34.85;;;;;;;30.20;47.65;101394.00;4206467;28;20036;-59
2022/07/08 00:52:06;;;;;;;210.32;24.65;;;;;;;30.21;46.81;101410.59;4196345;28;20488;-59
2022/07/08 00:54:08;;;;;;;266.73;26.77;;;;;;;30.19;47.62;101409.25;4197544;28;20037;-60
2022/07/08 00:56:10;;;;;;;251.85;24.75;;;;;;;30.18;47.54;101402.78;4197489;28;20036;-60
2022/07/08 00:58:15;;;;;;;432.80;35.25;;;;;;;30.15;47.96;101406.31;4194412;28;20040;-59
2022/07/08 01:00:22;;;;;;;409.55;33.92;;;;;;;30.11;47.88;101406.09;4197054;28;20045;-59
2022/07/08 01:02:29;;;;;;;309.13;31.38;;;;;;;30.13;47.56;101411.41;4197075;28;20090;-60
2022/07/08 01:04:31;;;;;;;419.33;35.17;;;;;;;30.15;47.55;101417.59;4197269;28;20361;-59
2022/07/08 01:06:33;;;;;;;506.25;46.03;;;;;;;30.16;47.61;101422.06;4196259;28;20511;-59
2022/07/08 01:08:34;;;;;;;540.22;47.00;;;;;;;30.18;47.51;101416.91;4197045;28;20041;-60
2022/07/08 01:10:36;;;;;;;611.67;56.35;;;;;;;30.19;47.59;101417.72;4197390;28;20113;-59
2022/07/08 01:12:38;;;;;;;617.55;59.05;;;;;;;30.20;47.76;101410.94;4196598;28;20037;-59
2022/07/08 01:14:39;;;;;;;462.80;46.25;;;;;;;30.20;47.66;101420.25;4199178;28;20033;-59
2022/07/08 01:16:41;;;;;;;420.80;40.28;;;;;;;30.21;47.72;101421.91;4200553;28;20109;-59
2022/07/08 01:18:43;;;;;;;471.23;45.38;;;;;;;30.23;47.54;101418.72;4200093;28;20472;-59
2022/07/08 01:20:45;;;;;;;437.98;39.95;;;;;;;30.23;47.56;101410.25;4215570;28;20090;-59
2022/07/08 01:22:47;;;;;;;431.98;40.00;;;;;;;30.24;47.54;101409.09;4207224;28;20044;-59
2022/07/08 01:24:48;;;;;;;390.25;36.85;;;;;;;30.24;47.61;101415.59;4200378;28;20040;-59
2022/07/08 01:26:50;;;;;;;416.30;36.05;;;;;;;30.25;47.75;101414.41;4200222;28;20431;-59
2022/07/08 01:28:51;;;;;;;382.63;36.72;;;;;;;30.26;47.39;101412.44;4199711;28;20102;-59
2022/07/08 01:30:53;;;;;;;377.88;33.13;;;;;;;30.25;47.49;101420.06;4200343;28;20029;-59
2022/07/08 01:32:54;;;;;;;380.05;32.67;;;;;;;30.26;47.61;101424.53;4204882;28;20048;-60
2022/07/08 01:34:58;;;;;;;265.00;27.50;;;;;;;30.26;47.55;101435.84;4216557;28;20441;-59
2022/07/08 01:37:01;;;;;;;265.92;26.88;;;;;;;30.26;47.53;101430.19;4216573;28;20437;-59
2022/07/08 01:39:03;;;;;;;199.45;24.38;;;;;;;30.28;47.24;101444.78;4216550;28;20036;-59
2022/07/08 01:41:09;;;;;;;275.45;27.67;;;;;;;30.28;47.51;101450.44;4215932;28;20479;-60
2022/07/08 01:43:11;;;;;;;255.63;25.95;;;;;;;30.29;47.31;101454.94;4216450;28;20097;-60
2022/07/08 01:45:12;;;;;;;232.02;25.00;;;;;;;30.29;47.31;101457.75;4207857;28;20052;-59
2022/07/08 01:47:14;;;;;;;224.15;23.33;;;;;;;30.29;47.36;101454.94;4199195;28;20071;-59
2022/07/08 01:49:17;;;;;;;252.05;27.25;;;;;;;30.26;47.44;101451.94;4199536;28;20442;-60
2022/07/08 01:51:19;;;;;;;178.77;22.53;;;;;;;30.29;47.34;101469.06;4200118;28;20020;-60
2022/07/08 01:53:20;;;;;;;268.65;24.17;;;;;;;30.29;47.28;101463.41;4200147;28;20269;-60
2022/07/08 01:55:25;;;;;;;225.55;24.33;;;;;;;30.24;47.19;101460.75;4199921;28;20074;-59
2022/07/08 01:57:28;;;;;;;;;;;;;;;30.28;47.21;101473.03;4199596;28;20036;-59
2022/07/08 01:59:33;;;;;;;172.60;19.60;;;;;;;30.33;47.29;101470.06;4199934;28;19916;-59
2022/07/08 02:01:36;;;;;;;198.13;20.80;;;;;;;30.33;47.23;101464.41;4199805;28;20480;-59
2022/07/08 02:03:38;;;;;;;149.32;18.55;;;;;;;30.32;47.18;101462.72;4199976;28;20032;-59
2022/07/08 02:05:42;;;;;;;172.02;18.15;;;;;;;30.31;47.21;101478.00;4199738;28;20045;-59
2022/07/08 02:07:43;;;;;;;177.27;19.33;;;;;;;30.30;47.36;101473.53;4200001;28;20036;-60
2022/07/08 02:09:47;;;;;;;133.23;16.65;;;;;;;30.25;47.05;101478.53;4199013;28;20090;-59
2022/07/08 02:14:11;;;;;;;108.78;15.93;;;;;;;30.28;47.37;101489.97;4200714;28;20082;-60
2022/07/08 02:16:12;;;;;;;159.98;16.92;;;;;;;30.22;47.37;101490.47;4200299;28;20097;-59
2022/07/08 02:18:13;;;;;;;136.90;16.30;;;;;;;30.25;47.41;101496.28;4199838;28;20457;-59
2022/07/08 02:20:15;;;;;;;124.78;16.00;;;;;;;30.28;47.33;101501.25;4199797;28;20063;-60
2022/07/08 02:22:16;;;;;;;123.90;17.02;;;;;;;30.27;47.57;101493.94;4200251;28;20102;-59
2022/07/08 02:24:20;;;;;;;105.75;14.23;;;;;;;30.27;47.16;101501.59;4203199;28;20028;-60
2022/07/08 02:26:21;;;;;;;108.37;12.97;;;;;;;30.27;47.40;101510.88;4199192;28;20105;-59
2022/07/08 02:28:23;;;;;;;111.45;13.38;;;;;;;30.26;47.37;101509.22;4203818;28;20288;-59
2022/07/08 02:30:25;;;;;;;89.55;13.23;;;;;;;30.28;47.21;101509.72;4204209;28;20056;-59
2022/07/08 02:32:26;;;;;;;91.95;12.98;;;;;;;30.27;47.28;101508.06;4199280;28;20044;-59
2022/07/08 02:34:28;;;;;;;103.57;14.95;;;;;;;30.19;47.22;101503.25;4198860;28;20036;-59
2022/07/08 02:36:35;;;;;;;99.95;12.57;;;;;;;30.27;47.25;101510.88;4197734;28;20078;-59
2022/07/08 02:38:36;;;;;;;106.63;13.25;;;;;;;30.26;47.11;101517.69;4198983;28;20533;-59
2022/07/08 02:40:37;;;;;;;111.45;15.20;;;;;;;30.26;47.25;101520.53;4199157;28;20107;-58
2022/07/08 02:42:39;;;;;;;78.13;12.07;;;;;;;30.26;47.18;101514.88;4198848;28;20045;-59
2022/07/08 02:44:43;;;;;;;76.95;11.32;;;;;;;30.26;47.24;101526.19;4198805;28;20074;-59
2022/07/08 02:46:45;;;;;;;81.20;12.85;;;;;;;30.25;46.94;101521.69;4199284;28;20075;-59
2022/07/08 02:48:49;;;;;;;80.63;10.85;;;;;;;30.22;47.01;101513.88;4198322;28;20434;-59
2022/07/08 02:50:51;;;;;;;68.28;11.00;;;;;;;30.14;47.05;101506.22;4199043;28;20036;-59
2022/07/08 02:52:52;;;;;;;78.10;11.35;;;;;;;30.27;47.06;101516.53;4198908;28;20044;-59
2022/07/08 02:54:53;;;;;;;60.88;9.02;;;;;;;30.25;47.17;101518.88;4198893;28;20036;-59
2022/07/08 02:56:55;;;;;;;60.40;8.77;;;;;;;30.26;46.86;101517.69;4198661;28;20089;-59
2022/07/08 02:58:56;;;;;;;66.45;10.30;;;;;;;30.26;47.04;101531.81;4198341;28;20040;-59
2022/07/08 03:01:00;;;;;;;76.68;10.80;;;;;;;30.25;46.92;101524.53;4212989;28;20097;-59
2022/07/08 03:03:01;;;;;;;72.63;10.82;;;;;;;30.26;47.03;101523.34;4215399;28;20361;-60
2022/07/08 03:05:03;;;;;;;47.13;8.60;;;;;;;30.26;46.85;101525.34;4215150;28;20039;-60
2022/07/08 03:07:04;;;;;;;53.65;7.00;;;;;;;30.24;47.22;101525.69;4215709;28;20032;-60
2022/07/08 03:09:05;;;;;;;41.75;6.82;;;;;;;30.24;47.02;101505.94;4214726;28;20047;-59
2022/07/08 03:11:10;;;;;;;41.85;6.15;;;;;;;30.13;47.19;101493.25;4215413;28;20040;-60
2022/07/08 03:13:11;;;;;;;43.15;7.00;;;;;;;30.19;47.31;101508.88;4215540;28;20048;-60
2022/07/08 03:15:13;;;;;;;39.67;7.10;;;;;;;30.19;46.97;101510.88;4214970;28;20032;-60
2022/07/08 03:17:14;;;;;;;46.22;7.35;;;;;;;30.19;47.42;101519.34;4215286;28;20437;-60
2022/07/08 03:19:15;;;;;;;46.08;7.18;;;;;;;30.18;47.42;101510.06;4214808;28;20073;-60
2022/07/08 03:21:17;;;;;;;36.20;6.85;;;;;;;30.11;47.14;101510.53;4215003;28;20036;-59
2022/07/08 03:23:23;;;;;;;38.85;8.00;;;;;;;30.15;47.20;101519.19;4215145;28;20105;-60
2022/07/08 03:25:29;;;;;;;34.55;6.43;;;;;;;30.17;47.38;101516.03;4215300;28;20043;-60
2022/07/08 03:27:33;;;;;;;37.85;7.32;;;;;;;30.17;47.37;101521.69;4214884;28;20044;-60
2022/07/08 03:29:35;;;;;;;35.60;6.40;;;;;;;30.16;47.18;101526.50;4212639;28;20032;-60
2022/07/08 03:31:36;;;;;;;42.03;7.20;;;;;;;30.15;47.34;101524.00;4205082;28;20036;-59
2022/07/08 03:33:38;;;;;;;44.28;6.38;;;;;;;30.12;47.12;101523.47;4197552;28;20049;-60
2022/07/08 03:35:39;;;;;;;35.70;6.45;;;;;;;30.12;47.14;101529.13;4198282;28;20070;-59
2022/07/08 03:37:42;;;;;;;35.50;7.25;;;;;;;30.12;47.23;101525.47;4197480;28;20044;-59
2022/07/08 03:39:44;;;;;;;41.53;6.28;;;;;;;30.11;47.06;101529.47;4197964;28;20361;-59
2022/07/08 03:41:45;;;;;;;28.23;5.35;;;;;;;30.10;47.21;101533.41;4198274;28;20037;-58
2022/07/08 03:43:48;;;;;;;34.30;6.70;;;;;;;30.11;47.50;101529.47;4198078;28;20094;-58
2022/07/08 03:45:50;;;;;;;27.35;5.90;;;;;;;30.10;47.35;101539.91;4206260;28;20036;-59
2022/07/08 03:47:51;;;;;;;24.98;5.55;;;;;;;30.06;47.41;101521.16;4214587;28;20106;-59
2022/07/08 03:49:53;;;;;;;31.05;4.97;;;;;;;30.11;47.28;101535.09;4214696;28;20040;-59
2022/07/08 03:51:54;;;;;;;27.83;5.03;;;;;;;30.10;47.41;101536.25;4207733;28;20040;-59
2022/07/08 03:53:56;;;;;;;25.05;4.72;;;;;;;30.09;47.46;101531.75;4197993;28;20127;-59
2022/07/08 03:55:58;;;;;;;20.70;5.63;;;;;;;30.08;47.31;101530.09;4198013;28;20085;-59
2022/07/08 03:58:02;;;;;;;24.40;5.63;;;;;;;30.08;47.40;101532.94;4198016;28;20040;-59
2022/07/08 04:00:08;;;;;;;21.25;5.03;;;;;;;30.08;47.17;101527.28;4198033;28;20040;-59
2022/07/08 04:02:09;;;;;;;25.27;4.47;;;;;;;30.08;47.24;101530.09;4197688;28;20090;-61
2022/07/08 04:04:11;;;;;;;26.13;5.53;;;;;;;30.07;47.58;101529.28;4198147;28;20029;-59
2022/07/08 04:06:12;;;;;;;21.33;4.45;;;;;;;30.06;47.40;101538.91;4198094;28;20032;-59
2022/07/08 04:08:16;;;;;;;24.52;4.40;;;;;;;29.94;47.30;101512.50;4197739;28;20044;-58
2022/07/08 04:10:17;;;;;;;16.17;4.93;;;;;;;30.05;47.44;101530.75;4196542;28;20078;-59
2022/07/08 04:12:19;;;;;;;16.15;4.55;;;;;;;30.01;47.36;101522.16;4197666;28;20041;-59
2022/07/08 04:14:20;;;;;;;18.77;4.80;;;;;;;30.03;47.45;101521.81;4197674;28;20070;-59
2022/07/08 04:16:21;;;;;;;24.33;4.75;;;;;;;30.04;47.26;101526.28;4197529;28;20094;-59
2022/07/08 04:18:25;;;;;;;15.30;4.30;;;;;;;30.02;47.18;101520.97;4197235;28;20041;-59
2022/07/08 04:20:26;;;;;;;20.20;4.25;;;;;;;30.02;47.42;101525.78;4197831;28;20044;-59
2022/07/08 04:22:27;;;;;;;16.83;4.07;;;;;;;30.02;47.06;101525.78;4198144;28;20435;-60
2022/07/08 04:24:29;;;;;;;12.20;3.80;;;;;;;30.01;47.22;101530.59;4197494;28;20037;-59
2022/07/08 04:26:33;;;;;;;16.45;3.78;;;;;;;30.00;47.30;101539.38;4197650;28;20041;-58
2022/07/08 04:28:34;;;;;;;18.67;4.43;;;;;;;30.01;47.42;101529.75;4197308;28;20053;-60
2022/07/08 04:30:39;;;;;;;17.92;4.07;;;;;;;30.01;47.12;101535.41;4197301;28;20093;-58
2022/07/08 04:32:40;;;;;;;19.20;4.20;;;;;;;30.00;47.14;101530.91;4197737;28;20048;-59
2022/07/08 04:34:47;;;;;;;18.48;4.00;;;;;;;29.96;47.37;101524.28;4197701;28;20041;-59
2022/07/08 04:36:49;;;;;;;14.98;4.35;;;;;;;29.99;47.09;101520.78;4197659;28;20113;-60
2022/07/08 04:38:56;;;;;;;15.77;3.88;;;;;;;29.93;47.32;101514.50;4197428;28;20098;-60
2022/07/08 04:40:57;;;;;;;16.77;4.20;;;;;;;29.97;47.25;101529.59;4197763;28;20033;-58
2022/07/08 04:43:01;;;;;;;17.23;3.95;;;;;;;29.96;47.29;101522.28;4197301;28;20046;-59
2022/07/08 04:45:04;;;;;;;14.55;3.85;;;;;;;29.92;47.28;101526.09;4197597;28;20098;-60
2022/07/08 04:47:06;;;;;;;11.70;3.67;;;;;;;29.97;47.26;101528.78;4197574;28;20110;-60
2022/07/08 04:49:08;;;;;;;14.85;3.60;;;;;;;29.96;47.18;101527.09;4197688;28;20040;-60
2022/07/08 04:51:09;;;;;;;16.63;4.55;;;;;;;29.97;47.31;101517.50;4200557;28;20044;-60
2022/07/08 04:53:10;;;;;;;14.52;3.88;;;;;;;29.91;47.40;101507.50;4215634;28;20560;-59
2022/07/08 04:55:27;;;;;;;18.25;4.30;;;;;;;29.87;47.28;101513.81;4217290;28;20040;-59
2022/07/08 04:57:32;;;;;;;10.20;3.17;;;;;;;29.93;47.10;101517.31;4203336;28;20049;-59
2022/07/08 04:59:34;;;;;;;11.88;3.25;;;;;;;29.93;47.03;101511.66;4200581;28;20106;-59
2022/07/08 05:01:38;;;;;;;8.43;3.45;;;;;;;29.92;47.21;101510.00;4200819;28;20051;-59
2022/07/08 05:03:39;;;;;;;10.50;3.67;;;;;;;29.87;47.24;101508.19;4200820;28;20044;-59
2022/07/08 05:05:41;;;;;;;12.10;3.40;;;;;;;29.88;47.31;101509.00;4200838;28;20269;-59
2022/07/08 05:07:42;;;;;;;13.38;3.53;;;;;;;29.92;47.14;101509.16;4200637;28;20086;-59
2022/07/08 05:09:44;;;;;;;11.48;3.08;;;;;;;29.84;47.23;101502.34;4199906;28;20089;-59
2022/07/08 05:11:45;;;;;;;10.45;3.47;;;;;;;29.91;47.01;101504.69;4200842;28;20028;-58
2022/07/08 05:13:47;;;;;;;10.98;2.97;;;;;;;29.88;47.01;101500.53;4200675;28;20048;-59
2022/07/08 05:15:48;;;;;;;11.43;3.40;;;;;;;29.88;47.26;101498.53;4200562;28;20438;-59
2022/07/08 05:17:51;;;;;;;10.20;2.65;;;;;;;29.87;47.25;101499.72;4200433;28;20101;-58
2022/07/08 05:19:55;;;;;;;8.05;3.00;;;;;;;29.86;46.97;101503.66;4200191;28;20381;-60
2022/07/08 05:21:59;;;;;;;7.50;2.50;;;;;;;29.88;47.13;101500.53;4208500;28;20077;-59
2022/07/08 05:24:04;;;;;;;9.32;2.83;;;;;;;29.87;47.08;101502.53;4216929;28;20085;-59
2022/07/08 05:26:06;;;;;;;7.82;2.95;;;;;;;29.86;47.03;101495.22;4217179;28;20044;-59
2022/07/08 05:28:07;;;;;;;10.48;3.40;;;;;;;29.86;46.87;101500.84;4216625;28;20070;-59
2022/07/08 05:30:10;;;;;;;9.70;2.85;;;;;;;29.84;47.13;101491.91;4217093;28;20036;-59
2022/07/08 05:32:14;;;;;;;10.88;2.83;;;;;;;29.84;46.94;101489.06;4216881;28;20093;-58
2022/07/08 05:34:15;;;;;;;7.82;2.83;;;;;;;29.84;47.16;101494.72;4216802;28;20089;-59
2022/07/08 05:36:17;;;;;;;6.97;2.53;;;;;;;29.84;47.11;101496.72;4216534;28;20540;-59
2022/07/08 05:38:18;;;;;;;7.30;3.13;;;;;;;29.83;47.17;101497.88;4216390;28;20533;-59
2022/07/08 05:40:19;;;;;;;8.30;2.55;;;;;;;29.82;47.20;101494.19;4216686;28;20445;-59
2022/07/08 05:42:24;;;;;;;6.65;2.67;;;;;;;29.81;47.13;101497.38;4216672;28;20450;-59
2022/07/08 05:44:25;;;;;;;10.07;2.97;;;;;;;29.82;46.98;101499.84;4216650;28;20090;-58
2022/07/08 05:46:26;;;;;;;7.80;3.33;;;;;;;29.82;47.14;101499.00;4216795;28;20032;-58
2022/07/08 05:48:30;;;;;;;7.05;2.95;;;;;;;29.81;47.11;101503.81;4216645;28;20062;-60
2022/07/08 05:50:32;;;;;;;9.88;3.17;;;;;;;29.81;47.10;101503.81;4216396;28;20097;-61
2022/07/08 05:52:33;;;;;;;7.70;4.18;;;;;;;29.80;46.88;101502.19;4203659;28;20036;-60
2022/07/08 05:54:38;;;;;;;5.95;3.30;;;;;;;29.80;47.14;101505.00;4199624;28;20041;-61
2022/07/08 05:56:39;;;;;;;;;;;;;;;29.79;46.91;101502.50;4200262;28;20048;-58
2022/07/08 05:58:40;;;;;;;8.48;3.33;;;;;;;29.81;46.94;101503.00;4200101;28;19912;-60
2022/07/08 06:00:44;;;;;;;7.55;2.83;;;;;;;29.78;46.80;101492.38;4199076;28;20028;-60
2022/07/08 06:02:46;;;;;;;6.45;2.63;;;;;;;29.82;47.07;101499.84;4200013;28;20422;-60
2022/07/08 06:04:50;;;;;;;7.63;2.92;;;;;;;29.80;47.08;101495.69;4199880;28;20038;-60
2022/07/08 06:06:51;;;;;;;9.07;2.97;;;;;;;29.79;47.15;101497.69;4199739;28;20135;-60
2022/07/08 06:08:53;;;;;;;7.97;2.85;;;;;;;29.78;47.21;101504.50;4199069;28;20028;-60
2022/07/08 06:10:56;;;;;;;8.10;3.33;;;;;;;29.78;46.98;101496.03;4199336;28;20110;-60
2022/07/08 06:13:03;;;;;;;6.57;2.90;;;;;;;29.78;47.14;101498.88;4199722;28;20044;-59
2022/07/08 06:15:05;;;;;;;6.07;2.53;;;;;;;29.77;46.96;101502.00;4199645;28;20044;-60
2022/07/08 06:17:07;;;;;;;9.82;2.60;;;;;;;29.76;47.13;101500.34;4199615;28;20063;-60
2022/07/08 06:19:08;;;;;;;6.63;2.90;;;;;;;29.75;46.93;101499.50;4199355;28;20033;-60
2022/07/08 06:21:09;;;;;;;8.13;2.65;;;;;;;29.76;47.07;101500.34;4202165;28;20032;-59
2022/07/08 06:23:11;;;;;;;4.85;2.42;;;;;;;29.75;46.86;101502.34;4182844;28;20090;-60
2022/07/08 06:25:13;;;;;;;6.75;2.10;;;;;;;29.75;47.07;101493.03;4182978;28;20098;-59
2022/07/08 06:27:14;;;;;;;5.47;2.28;;;;;;;29.74;46.95;101497.84;4182829;28;20037;-59
2022/07/08 06:29:19;;;;;;;5.82;2.25;;;;;;;29.71;47.05;101484.41;4182309;28;20484;-59
2022/07/08 06:31:20;;;;;;;6.10;2.47;;;;;;;29.73;46.97;101487.72;4182815;28;20057;-59
2022/07/08 06:33:21;;;;;;;7.43;2.30;;;;;;;29.72;46.99;101482.41;4182768;28;20094;-59
2022/07/08 06:35:23;;;;;;;5.15;2.03;;;;;;;29.72;46.98;101479.59;4182769;28;20033;-59
2022/07/08 06:37:24;;;;;;;4.40;2.10;;;;;;;29.72;46.85;101488.06;4182780;28;20377;-59
2022/07/08 06:39:26;;;;;;;4.25;2.13;;;;;;;29.71;46.84;101475.94;4182465;28;20048;-59
2022/07/08 06:41:27;;;;;;;4.93;2.40;;;;;;;29.71;46.93;101473.13;4182674;28;20434;-59
2022/07/08 06:43:28;;;;;;;8.00;2.47;;;;;;;29.71;46.93;101473.13;4182874;28;20120;-59
2022/07/08 06:45:32;;;;;;;8.27;2.60;;;;;;;29.63;47.14;101457.00;4185617;28;20076;-60
2022/07/08 06:47:33;;;;;;;4.57;2.05;;;;;;;29.63;47.00;101457.00;4215919;28;20105;-60
2022/07/08 06:49:34;;;;;;;5.13;2.28;;;;;;;29.70;46.82;101467.81;4215562;28;20101;-60
2022/07/08 06:51:42;;;;;;;4.20;2.38;;;;;;;29.70;46.77;101474.28;4215421;28;20044;-60
2022/07/08 06:56:06;;;;;;;3.78;1.88;;;;;;;29.68;46.95;101470.94;4200063;28;20101;-60
2022/07/08 06:58:07;;;;;;;4.47;2.20;;;;;;;29.68;46.90;101459.66;4198885;28;20028;-60
2022/07/08 07:00:12;;;;;;;5.20;2.58;;;;;;;29.68;47.02;101459.66;4197743;28;20044;-60
2022/07/08 07:02:13;;;;;;;4.60;1.98;;;;;;;29.68;46.93;101453.19;4198881;28;20097;-59
2022/07/08 07:04:20;;;;;;;6.13;2.50;;;;;;;29.66;47.02;101450.72;4198966;28;20033;-61
2022/07/08 07:06:22;;;;;;;5.18;2.85;;;;;;;29.67;46.89;101446.72;4198342;28;20036;-60
2022/07/08 07:08:23;;;;;;;6.18;2.50;;;;;;;29.65;46.87;101432.13;4198109;28;20036;-60
2022/07/08 07:10:25;;;;;;;4.55;2.40;;;;;;;29.66;46.78;101438.59;4198186;28;20036;-60
2022/07/08 07:12:27;;;;;;;3.45;2.17;;;;;;;29.66;46.82;101439.44;4197725;28;20048;-61
2022/07/08 07:14:28;;;;;;;3.15;2.20;;;;;;;29.66;47.09;101433.78;4198687;28;20090;-60
2022/07/08 07:16:29;;;;;;;6.25;2.55;;;;;;;29.66;47.03;101444.25;4199328;28;20040;-60
2022/07/08 07:18:31;;;;;;;5.93;2.35;;;;;;;29.66;47.00;101435.78;4198137;28;20541;-60
2022/07/08 07:20:37;;;;;;;3.83;2.17;;;;;;;29.62;46.99;101432.78;4198529;28;20529;-60
2022/07/08 07:22:39;;;;;;;6.40;2.20;;;;;;;29.66;46.72;101439.44;4198498;28;20028;-60
2022/07/08 07:24:40;;;;;;;2.83;1.80;;;;;;;29.65;46.89;101432.13;4198503;28;20032;-60
2022/07/08 07:26:50;;;;;;;4.63;2.40;;;;;;;29.64;46.96;101430.44;4198533;28;20075;-60
2022/07/08 07:28:51;;;;;;;7.90;2.53;;;;;;;29.65;47.03;101431.31;4198047;28;20097;-60
2022/07/08 07:30:56;;;;;;;4.25;2.40;;;;;;;29.63;46.84;101428.78;4198345;28;20060;-60
2022/07/08 07:32:57;;;;;;;4.47;2.33;;;;;;;29.63;46.83;101429.63;4198366;28;20044;-60
2022/07/08 07:35:01;;;;;;;4.80;2.38;;;;;;;29.59;46.79;101427.78;4198136;28;20098;-59
2022/07/08 07:37:03;;;;;;;5.95;2.08;;;;;;;29.62;46.73;101422.34;4198308;28;20122;-60
2022/07/08 07:39:04;;;;;;;4.72;2.13;;;;;;;29.52;46.90;101410.50;4199442;28;20082;-60
2022/07/08 07:41:06;;;;;;;4.38;2.00;;;;;;;29.62;46.82;101432.78;4203404;28;20044;-60
2022/07/08 07:43:07;;;;;;;5.25;2.10;;;;;;;29.61;46.70;101436.78;4198302;28;20067;-60
2022/07/08 07:45:11;;;;;;;4.55;2.00;;;;;;;29.61;46.77;101431.13;4198400;28;20028;-60
2022/07/08 07:47:15;;;;;;;5.45;2.13;;;;;;;29.61;46.95;101431.13;4197826;28;20041;-60
2022/07/08 07:49:17;;;;;;;4.57;2.10;;;;;;;29.61;47.02;101442.41;4198043;28;20032;-60
2022/07/08 07:51:18;;;;;;;4.43;2.30;;;;;;;29.57;46.79;101435.75;4197820;28;20071;-60
2022/07/08 07:53:23;;;;;;;4.95;2.28;;;;;;;29.59;47.10;101434.25;4201913;28;20090;-60
2022/07/08 07:55:28;;;;;;;3.42;2.03;;;;;;;29.59;46.91;101433.44;4197977;28;20040;-60
2022/07/08 07:57:29;;;;;;;4.93;2.70;;;;;;;29.59;46.91;101439.91;4197995;28;20085;-60
2022/07/08 07:59:31;;;;;;;3.08;2.13;;;;;;;29.59;46.71;101433.44;4198187;28;20078;-60
2022/07/08 08:01:32;;;;;;;4.03;2.30;;;;;;;29.58;46.92;101423.31;4197757;28;20041;-60
2022/07/08 08:03:33;;;;;;;2.70;2.28;;;;;;;29.53;46.72;101421.44;4197989;28;20094;-60
2022/07/08 08:05:35;;;;;;;6.30;2.20;;;;;;;29.57;46.84;101435.75;4197904;28;20040;-60
2022/07/08 08:07:38;;;;;;;4.03;2.33;;;;;;;29.57;47.08;101436.59;4197602;28;20040;-60
2022/07/08 08:09:42;;;;;;;2.15;1.95;;;;;;;29.55;46.89;101438.94;4197712;28;20086;-60
2022/07/08 08:11:46;;;;;;;4.97;2.28;;;;;;;29.56;46.73;101451.03;4197392;28;20105;-60
2022/07/08 08:13:47;;;;;;;4.75;2.35;;;;;;;29.56;46.84;101451.03;4208489;28;20081;-60
2022/07/08 08:15:49;;;;;;;3.42;2.00;;;;;;;29.57;46.81;101453.50;4212525;28;20048;-60
2022/07/08 08:17:50;;;;;;;5.93;2.22;;;;;;;29.57;46.86;101453.50;4214528;28;20044;-59
2022/07/08 08:19:51;;;;;;;3.15;1.90;;;;;;;29.56;47.09;101451.03;4213981;28;20097;-60
2022/07/08 08:21:53;;;;;;;3.63;1.92;;;;;;;29.55;47.01;101447.38;4214651;28;20048;-60
2022/07/08 08:23:54;;;;;;;4.85;2.58;;;;;;;29.56;47.08;101451.84;4214468;28;20095;-58
2022/07/08 08:25:55;;;;;;;5.82;2.40;;;;;;;29.56;46.84;101462.31;4214092;28;20418;-58
2022/07/08 08:27:57;;;;;;;2.95;1.98;;;;;;;29.55;46.99;101463.44;4214627;28;20094;-59
2022/07/08 08:29:59;;;;;;;3.90;1.90;;;;;;;29.54;46.97;101464.56;4214155;28;20044;-58
2022/07/08 08:32:00;;;;;;;3.55;2.17;;;;;;;29.45;47.00;101449.63;4214223;28;20048;-58
2022/07/08 08:34:04;;;;;;;5.25;2.67;;;;;;;29.54;47.08;101467.41;4212922;28;20093;-58
2022/07/08 08:36:06;;;;;;;2.97;2.03;;;;;;;29.54;47.07;101473.03;4196868;28;20545;-59
2022/07/08 08:38:07;;;;;;;4.78;2.10;;;;;;;29.53;47.11;101472.22;4198412;28;20041;-58
2022/07/08 08:40:13;;;;;;;5.68;2.83;;;;;;;29.53;46.94;101468.56;4214169;28;20097;-59
2022/07/08 08:42:18;;;;;;;3.88;2.35;;;;;;;29.53;47.11;101468.56;4212686;28;20033;-58
2022/07/08 08:44:19;;;;;;;3.30;2.08;;;;;;;29.52;46.96;101467.72;4197702;28;20036;-59
2022/07/08 08:46:23;;;;;;;6.10;2.40;;;;;;;29.51;46.94;101463.25;4197180;28;20094;-58
2022/07/08 08:48:26;;;;;;;5.53;2.70;;;;;;;29.51;47.18;101465.25;4197156;28;20045;-58
2022/07/08 08:52:53;;;;;;;3.72;2.33;;;;;;;29.51;47.23;101468.06;4198036;28;20086;-58
2022/07/08 08:54:55;;;;;;;3.08;1.90;;;;;;;29.50;47.04;101469.22;4197647;28;20102;-58
2022/07/08 08:57:00;;;;;;;5.18;2.38;;;;;;;29.50;46.89;101467.22;4197464;28;20102;-58
2022/07/08 08:59:02;;;;;;;5.28;2.25;;;;;;;29.51;46.97;101468.06;4197202;28;20561;-58
2022/07/08 09:01:04;;;;;;;5.75;2.80;;;;;;;29.48;46.99;101455.44;4197245;28;20033;-59
2022/07/08 09:03:08;;;;;;;5.00;2.15;;;;;;;29.44;47.19;101445.16;4197261;28;20103;-58
2022/07/08 09:05:12;;;;;;;5.32;2.78;;;;;;;29.46;47.10;101457.78;4197557;28;20438;-58
2022/07/08 09:07:15;;;;;;;6.73;2.60;;;;;;;29.45;46.99;101446.81;4197167;28;20037;-59
2022/07/08 09:09:16;;;;;;;5.45;2.40;;;;;;;29.49;47.04;101456.28;4206593;28;20276;-58
2022/07/08 09:11:19;;;;;;;3.42;2.10;;;;;;;29.48;46.85;101455.44;4199663;28;20040;-58
2022/07/08 09:13:25;;;;;;;4.03;2.55;;;;;;;29.44;47.00;101454.44;4197015;28;20040;-58
2022/07/08 09:15:30;;;;;;;5.18;2.50;;;;;;;29.47;46.97;101476.34;4197318;28;20075;-58
2022/07/08 09:17:44;;;;;;;3.03;2.00;;;;;;;29.47;46.92;101467.06;4197733;28;20041;-58
2022/07/08 09:19:50;;;;;;;4.57;2.08;;;;;;;29.48;47.20;101477.19;4196759;28;20569;-58
2022/07/08 09:21:54;;;;;;;4.15;2.25;;;;;;;29.48;46.99;101465.91;4196951;28;20476;-59
2022/07/08 09:23:55;;;;;;;4.10;2.38;;;;;;;29.48;46.98;101471.53;4197118;28;20040;-58
2022/07/08 09:26:08;;;;;;;3.75;1.95;;;;;;;29.46;47.05;101471.88;4197521;28;20086;-58
2022/07/08 09:28:09;;;;;;;4.40;2.50;;;;;;;29.46;46.97;101473.84;4196782;28;20098;-58
2022/07/08 09:30:15;;;;;;;3.83;2.30;;;;;;;29.47;47.14;101475.53;4197272;28;20037;-59